Time;durP1;ratioP1;P1;durP2;ratioP2;P2;SDS_P1;SDS_P2;PMS_P1;PMS_P2;Temp;Humidity;BMP_temperature;BMP_pressure;BME280_temperature;BME280_humidity;BME280_pressure;Samples;Min_cycle;Max_cycle;Signal;HPM_P1;HPM_P2
2023/08/24 00:00:10;;;;;;;12.07;7.05;;;20.50;99.90;;;;;;5074207;28;20235;-75
2023/08/24 00:02:37;;;;;;;8.98;6.45;;;20.50;99.90;;;;;;5074300;28;20628;-75
2023/08/24 00:05:03;;;;;;;8.82;7.00;;;20.50;99.90;;;;;;5074375;28;20177;-75
2023/08/24 00:07:30;;;;;;;11.23;7.88;;;20.60;99.90;;;;;;5072810;28;20215;-75
2023/08/24 00:09:55;;;;;;;9.82;7.10;;;20.50;99.90;;;;;;5074415;28;20180;-75
2023/08/24 00:12:21;;;;;;;11.32;8.10;;;20.60;99.90;;;;;;5073876;28;20173;-75
2023/08/24 00:14:47;;;;;;;9.07;6.90;;;20.60;99.90;;;;;;5073926;28;20169;-74
2023/08/24 00:17:12;;;;;;;10.85;6.95;;;20.50;99.90;;;;;;5074133;28;20168;-75
2023/08/24 00:19:38;;;;;;;6.90;6.20;;;20.50;99.90;;;;;;5073841;28;20243;-74
2023/08/24 00:22:04;;;;;;;12.38;7.07;;;20.50;99.90;;;;;;5073987;28;20725;-74
2023/08/24 00:24:29;;;;;;;8.98;7.60;;;20.50;99.90;;;;;;5073890;28;20176;-75
2023/08/24 00:26:55;;;;;;;11.63;9.55;;;20.50;99.90;;;;;;5073325;28;20200;-74
2023/08/24 00:29:21;;;;;;;11.25;7.50;;;20.50;99.90;;;;;;5073292;28;20177;-74
2023/08/24 00:31:47;;;;;;;14.35;9.82;;;20.50;99.90;;;;;;5074007;28;20208;-74
2023/08/24 00:34:13;;;;;;;10.13;9.00;;;20.50;99.90;;;;;;5073651;28;20172;-75
2023/08/24 00:36:38;;;;;;;15.18;10.80;;;20.60;99.90;;;;;;5073704;28;20177;-74
2023/08/24 00:39:04;;;;;;;11.80;9.13;;;20.60;99.90;;;;;;5073619;28;20192;-76
2023/08/24 00:41:30;;;;;;;13.07;9.23;;;20.60;99.90;;;;;;5073614;28;20168;-74
2023/08/24 00:43:55;;;;;;;12.95;8.80;;;20.70;99.90;;;;;;5073398;28;20196;-76
2023/08/24 00:46:22;;;;;;;10.90;7.00;;;20.80;99.90;;;;;;5073656;28;20246;-74
2023/08/24 00:48:48;;;;;;;10.55;6.55;;;20.80;99.90;;;;;;5073463;28;20219;-74
2023/08/24 00:51:14;;;;;;;7.63;6.80;;;20.80;99.90;;;;;;5073567;28;20687;-75
2023/08/24 00:53:40;;;;;;;9.90;6.60;;;20.90;99.90;;;;;;5073545;28;20529;-75
2023/08/24 00:56:06;;;;;;;11.23;7.07;;;20.90;99.90;;;;;;5073143;28;20178;-75
2023/08/24 00:58:32;;;;;;;16.88;11.90;;;20.90;99.90;;;;;;5073190;28;20231;-75
2023/08/24 01:00:58;;;;;;;12.98;9.73;;;20.90;99.90;;;;;;5073712;28;20165;-74
2023/08/24 01:03:25;;;;;;;11.50;7.38;;;20.90;99.90;;;;;;5073359;28;20525;-75
2023/08/24 01:05:51;;;;;;;10.60;8.75;;;20.90;99.90;;;;;;5073316;28;20237;-74
2023/08/24 01:08:17;;;;;;;7.97;6.95;;;20.90;99.90;;;;;;5073178;28;20212;-74
2023/08/24 01:10:54;;;;;;;9.90;7.00;;;20.90;99.90;;;;;;5071631;28;20810;-74
2023/08/24 01:13:36;;;;;;;11.82;6.57;;;20.90;99.90;;;;;;5073236;28;20647;-74
2023/08/24 01:16:09;;;;;;;12.18;6.85;;;20.90;99.90;;;;;;5073126;28;20176;-74
2023/08/24 01:18:36;;;;;;;8.05;6.85;;;20.90;99.90;;;;;;5072788;28;20216;-75
2023/08/24 01:21:02;;;;;;;8.90;6.38;;;21.00;99.90;;;;;;5073141;28;20181;-75
2023/08/24 01:23:45;;;;;;;11.02;7.00;;;21.10;99.90;;;;;;5072885;28;20278;-75
2023/08/24 01:26:11;;;;;;;7.30;6.63;;;21.00;99.90;;;;;;5073149;28;20161;-76
2023/08/24 01:28:37;;;;;;;8.32;7.00;;;20.90;99.90;;;;;;5073018;28;20207;-76
2023/08/24 01:31:04;;;;;;;8.57;6.70;;;20.80;99.90;;;;;;5073146;28;20168;-74
2023/08/24 01:33:30;;;;;;;7.88;7.18;;;20.90;99.90;;;;;;5073149;28;20651;-75
2023/08/24 01:35:56;;;;;;;8.18;6.95;;;20.80;99.90;;;;;;5071540;28;20172;-75
2023/08/24 01:38:22;;;;;;;11.23;8.20;;;20.90;99.90;;;;;;5072796;28;20168;-75
2023/08/24 01:40:50;;;;;;;12.77;9.13;;;20.80;99.90;;;;;;5073009;28;20204;-76
2023/08/24 01:43:20;;;;;;;10.80;8.82;;;20.60;99.90;;;;;;5076956;28;20165;-75
2023/08/24 01:45:48;;;;;;;13.90;8.35;;;20.60;99.90;;;;;;5077018;28;20233;-75
2023/08/24 01:48:14;;;;;;;8.82;7.32;;;20.60;99.90;;;;;;5076869;28;20205;-74
2023/08/24 01:50:41;;;;;;;9.45;7.70;;;20.60;99.90;;;;;;5076670;28;20169;-74
2023/08/24 01:53:06;;;;;;;11.45;7.47;;;20.60;99.90;;;;;;5076430;28;20169;-75
2023/08/24 01:55:32;;;;;;;11.38;7.18;;;20.60;99.90;;;;;;5076923;28;20180;-74
2023/08/24 01:57:58;;;;;;;7.47;6.68;;;20.60;99.90;;;;;;5076721;28;20176;-74
2023/08/24 02:00:23;;;;;;;12.48;7.30;;;20.60;99.90;;;;;;5076639;28;20172;-75
2023/08/24 02:02:49;;;;;;;10.27;7.38;;;20.70;99.90;;;;;;5076483;28;20560;-75
2023/08/24 02:05:15;;;;;;;11.30;7.18;;;20.70;99.90;;;;;;5076316;28;20253;-75
2023/08/24 02:07:40;;;;;;;10.32;8.10;;;20.80;99.90;;;;;;5074842;28;20295;-77
2023/08/24 02:10:06;;;;;;;9.45;7.00;;;20.80;99.90;;;;;;5076572;28;20165;-77
2023/08/24 02:12:32;;;;;;;14.13;7.63;;;20.60;99.90;;;;;;5075209;28;20676;-75
2023/08/24 02:14:58;;;;;;;9.38;7.95;;;20.30;99.90;;;;;;5076350;28;20203;-73
2023/08/24 02:17:23;;;;;;;13.10;8.00;;;20.00;99.90;;;;;;5074912;28;20255;-74
2023/08/24 02:19:50;;;;;;;12.35;8.02;;;19.80;99.90;;;;;;5076142;28;20207;-74
2023/08/24 02:22:15;;;;;;;11.90;7.82;;;19.70;99.90;;;;;;5076052;28;20180;-74
2023/08/24 02:24:41;;;;;;;13.40;8.30;;;19.70;99.90;;;;;;5076173;28;20168;-75
2023/08/24 02:27:07;;;;;;;10.00;7.55;;;19.60;99.90;;;;;;5076214;28;20554;-75
2023/08/24 02:29:32;;;;;;;10.95;8.20;;;19.60;99.90;;;;;;5076031;28;20573;-75
2023/08/24 02:31:58;;;;;;;10.98;8.43;;;19.60;99.90;;;;;;5076086;28;20165;-74
2023/08/24 02:34:23;;;;;;;8.63;7.43;;;19.60;99.90;;;;;;5075954;28;20172;-74
2023/08/24 02:36:49;;;;;;;9.40;7.07;;;19.60;99.90;;;;;;5075530;28;20225;-74
2023/08/24 02:39:14;;;;;;;9.35;7.53;;;19.60;99.90;;;;;;5075789;28;20168;-75
2023/08/24 02:41:40;;;;;;;7.93;6.65;;;19.70;99.90;;;;;;5075974;28;20226;-75
2023/08/24 02:44:06;;;;;;;7.80;7.00;;;19.70;99.90;;;;;;5075922;28;20659;-75
2023/08/24 02:46:31;;;;;;;15.10;7.40;;;19.80;99.90;;;;;;5075719;28;20551;-75
2023/08/24 02:48:57;;;;;;;11.38;7.28;;;19.80;99.90;;;;;;5075634;28;20247;-74
2023/08/24 02:51:23;;;;;;;9.25;7.30;;;19.90;99.90;;;;;;5074239;28;20188;-74
2023/08/24 02:53:49;;;;;;;11.63;7.82;;;19.90;99.90;;;;;;5075099;28;20161;-73
2023/08/24 02:56:15;;;;;;;9.65;7.57;;;20.00;99.90;;;;;;5075367;28;20235;-73
2023/08/24 02:58:41;;;;;;;10.48;7.28;;;20.10;99.90;;;;;;5075682;28;20179;-73
2023/08/24 03:01:09;;;;;;;8.13;7.30;;;20.20;99.90;;;;;;5075516;28;20177;-74
2023/08/24 03:03:36;;;;;;;10.32;7.10;;;20.20;99.90;;;;;;5075168;28;20530;-75
2023/08/24 03:06:04;;;;;;;9.98;7.80;;;20.30;99.90;;;;;;5075101;28;20199;-74
2023/08/24 03:08:31;;;;;;;9.48;7.65;;;20.30;99.90;;;;;;5075296;28;20284;-75
2023/08/24 03:11:00;;;;;;;7.85;7.15;;;20.40;99.90;;;;;;5075199;28;20199;-75
2023/08/24 03:13:27;;;;;;;8.05;6.90;;;20.30;99.90;;;;;;5075153;28;20185;-75
2023/08/24 03:15:53;;;;;;;10.75;8.10;;;20.40;99.90;;;;;;5074928;28;20169;-75
2023/08/24 03:18:20;;;;;;;7.57;6.88;;;20.40;99.90;;;;;;5074506;28;20573;-75
2023/08/24 03:20:46;;;;;;;14.18;8.90;;;20.30;99.90;;;;;;5074642;28;20244;-74
2023/08/24 03:23:12;;;;;;;10.60;7.97;;;20.30;99.90;;;;;;5075047;28;20176;-74
2023/08/24 03:25:39;;;;;;;7.95;7.10;;;20.20;99.90;;;;;;5074922;28;20226;-75
2023/08/24 03:28:09;;;;;;;12.90;8.13;;;20.20;99.90;;;;;;5073404;28;20239;-75
2023/08/24 03:30:36;;;;;;;9.73;7.78;;;20.10;99.90;;;;;;5074633;28;20640;-74
2023/08/24 03:33:02;;;;;;;10.35;7.68;;;20.10;99.90;;;;;;5074601;28;20180;-74
2023/08/24 03:35:30;;;;;;;8.90;7.63;;;20.00;99.90;;;;;;5074286;28;20263;-74
2023/08/24 03:37:56;;;;;;;8.40;6.97;;;20.00;99.90;;;;;;5074581;28;20200;-74
2023/08/24 03:40:22;;;;;;;9.52;7.00;;;20.00;99.90;;;;;;5073178;28;20647;-74
2023/08/24 03:42:47;;;;;;;9.30;6.72;;;19.90;99.90;;;;;;5074565;28;20237;-74
2023/08/24 03:45:13;;;;;;;12.88;8.15;;;19.90;99.90;;;;;;5074164;28;20656;-74
2023/08/24 03:47:39;;;;;;;10.10;7.72;;;19.90;99.90;;;;;;5074264;28;20664;-74
2023/08/24 03:50:05;;;;;;;17.33;7.65;;;19.80;99.90;;;;;;5073870;28;20218;-75
2023/08/24 03:52:31;;;;;;;10.27;8.13;;;19.70;99.90;;;;;;5074303;28;20195;-75
2023/08/24 03:54:57;;;;;;;8.18;7.25;;;19.60;99.90;;;;;;5074149;28;20577;-74
2023/08/24 03:57:22;;;;;;;8.98;7.75;;;19.60;99.90;;;;;;5074184;28;20203;-76
2023/08/24 03:59:48;;;;;;;8.82;7.65;;;19.50;99.90;;;;;;5073622;28;20175;-75
2023/08/24 04:02:14;;;;;;;10.80;8.05;;;19.40;99.90;;;;;;5073860;28;20267;-75
2023/08/24 04:04:40;;;;;;;11.63;8.50;;;19.40;99.90;;;;;;5072955;28;20263;-75
2023/08/24 04:07:05;;;;;;;10.20;8.05;;;19.40;99.90;;;;;;5074054;28;20200;-74
2023/08/24 04:09:31;;;;;;;11.93;8.05;;;19.30;99.90;;;;;;5074769;28;20246;-75
2023/08/24 04:11:57;;;;;;;12.05;8.75;;;19.30;99.90;;;;;;5073788;28;20165;-74
2023/08/24 04:14:22;;;;;;;9.57;8.38;;;19.30;99.90;;;;;;5073802;28;20253;-74
2023/08/24 04:16:48;;;;;;;12.38;8.52;;;19.30;99.90;;;;;;5073676;28;20260;-74
2023/08/24 04:19:13;;;;;;;10.65;8.90;;;19.30;99.90;;;;;;5073241;28;20533;-74
2023/08/24 04:21:39;;;;;;;12.55;9.30;;;19.30;99.90;;;;;;5073435;28;20168;-74
2023/08/24 04:24:05;;;;;;;17.33;9.32;;;19.30;99.90;;;;;;5073914;28;20229;-74
2023/08/24 04:26:31;;;;;;;12.05;8.52;;;19.20;99.90;;;;;;5073643;28;20754;-72
2023/08/24 04:28:56;;;;;;;11.82;9.00;;;19.10;99.90;;;;;;5073108;28;20208;-73
2023/08/24 04:31:22;;;;;;;16.30;8.82;;;19.10;99.90;;;;;;5073065;28;20218;-73
2023/08/24 04:33:47;;;;;;;11.48;8.70;;;19.00;99.90;;;;;;5072944;28;20176;-73
2023/08/24 04:36:13;;;;;;;13.23;8.88;;;18.90;99.90;;;;;;5073314;28;20654;-74
2023/08/24 04:38:39;;;;;;;11.45;9.02;;;18.80;99.90;;;;;;5073324;28;20164;-73
2023/08/24 04:41:08;;;;;;;15.40;8.88;;;18.90;99.90;;;;;;5072871;28;20168;-74
2023/08/24 04:43:34;;;;;;;16.45;9.63;;;18.90;99.90;;;;;;5072778;28;20203;-74
2023/08/24 04:45:59;;;;;;;11.88;9.15;;;19.00;99.90;;;;;;5072970;28;20264;-74
2023/08/24 04:48:26;;;;;;;16.00;9.90;;;18.90;99.90;;;;;;5072674;28;20354;-73
2023/08/24 04:50:53;;;;;;;10.52;8.90;;;18.90;99.90;;;;;;5073358;28;20699;-73
2023/08/24 04:53:19;;;;;;;11.20;9.10;;;18.90;99.90;;;;;;5072782;28;20195;-73
2023/08/24 04:55:46;;;;;;;11.98;9.73;;;18.90;99.90;;;;;;5072814;28;20179;-73
2023/08/24 04:58:13;;;;;;;12.48;8.90;;;18.90;99.90;;;;;;5072628;28;20260;-74
2023/08/24 05:00:39;;;;;;;10.18;8.93;;;18.90;99.90;;;;;;5073153;28;20161;-74
2023/08/24 05:03:06;;;;;;;11.70;9.23;;;18.90;99.90;;;;;;5071191;28;20176;-74
2023/08/24 05:05:35;;;;;;;13.57;9.15;;;18.90;99.90;;;;;;5072529;28;20256;-74
2023/08/24 05:08:10;;;;;;;14.23;8.88;;;19.00;99.90;;;;;;5072616;28;20298;-74
2023/08/24 05:10:36;;;;;;;15.65;9.00;;;19.10;99.90;;;;;;5072027;28;20168;-73
2023/08/24 05:13:01;;;;;;;16.02;9.50;;;19.10;99.90;;;;;;5072695;28;20171;-74
2023/08/24 05:15:27;;;;;;;12.82;8.98;;;19.40;99.90;;;;;;5072178;28;20252;-75
2023/08/24 05:17:54;;;;;;;12.35;8.13;;;19.70;99.90;;;;;;5071956;28;20703;-73
2023/08/24 05:20:21;;;;;;;8.82;7.00;;;20.30;99.90;;;;;;5072914;28;20177;-74
2023/08/24 05:22:47;;;;;;;7.63;6.20;;;20.80;99.90;;;;;;5073046;28;20173;-74
2023/08/24 05:25:13;;;;;;;8.23;5.80;;;21.20;99.90;;;;;;5072106;28;20663;-73
2023/08/24 05:27:39;;;;;;;5.72;5.15;;;21.70;99.90;;;;;;5072254;28;20271;-73
2023/08/24 05:30:06;;;;;;;7.53;5.40;;;22.20;99.90;;;;;;5072630;28;20176;-74
2023/08/24 05:32:31;;;;;;;9.00;5.38;;;22.40;99.90;;;;;;5072130;28;20244;-73
2023/08/24 05:34:57;;;;;;;5.53;5.03;;;22.80;99.90;;;;;;5072504;28;20196;-73
2023/08/24 05:37:23;;;;;;;7.85;5.43;;;23.30;99.90;;;;;;5072973;28;20225;-75
2023/08/24 05:39:49;;;;;;;5.88;4.70;;;24.10;99.90;;;;;;5072272;28;20176;-75
2023/08/24 05:42:15;;;;;;;7.78;4.55;;;24.90;99.90;;;;;;5072447;28;20180;-75
2023/08/24 05:44:40;;;;;;;8.25;4.80;;;25.50;99.90;;;;;;5072019;28;20228;-75
2023/08/24 05:47:06;;;;;;;5.35;4.68;;;25.80;99.90;;;;;;5072195;28;20193;-77
2023/08/24 05:49:32;;;;;;;5.35;4.35;;;26.30;99.90;;;;;;5072397;28;20612;-76
2023/08/24 05:51:57;;;;;;;6.82;4.57;;;27.00;99.90;;;;;;5072319;28;20176;-76
2023/08/24 05:54:23;;;;;;;8.10;4.45;;;27.50;99.90;;;;;;5071992;28;20165;-77
2023/08/24 05:56:49;;;;;;;6.45;4.60;;;28.20;99.90;;;;;;5072397;28;20589;-77
2023/08/24 05:59:14;;;;;;;7.97;5.47;;;28.10;99.90;;;;;;5071800;28;20173;-79
2023/08/24 06:01:41;;;;;;;10.48;6.38;;;28.00;99.90;;;;;;5072527;28;20204;-78
2023/08/24 06:04:10;;;;;;;11.77;5.90;;;26.80;99.90;;;;;;5072059;28;20164;-76
2023/08/24 06:06:36;;;;;;;10.25;5.55;;;26.40;99.90;;;;;;5072088;28;20251;-76
2023/08/24 06:09:05;;;;;;;9.48;6.80;;;26.00;99.90;;;;;;5072244;28;20230;-76
2023/08/24 06:11:32;;;;;;;14.15;6.38;;;26.00;99.90;;;;;;5071872;28;20168;-75
2023/08/24 06:13:58;;;;;;;8.80;6.35;;;27.10;99.90;;;;;;5072023;28;20180;-75
2023/08/24 06:16:24;;;;;;;12.40;6.10;;;28.10;99.90;;;;;;5071968;28;20173;-75
2023/08/24 06:18:50;;;;;;;10.32;6.43;;;28.90;99.90;;;;;;5071825;28;20220;-75
2023/08/24 06:21:16;;;;;;;14.10;7.30;;;29.10;99.90;;;;;;5071476;28;20223;-76
2023/08/24 06:23:42;;;;;;;20.42;6.80;;;29.20;99.90;;;;;;5072015;28;20172;-75
2023/08/24 06:26:08;;;;;;;14.18;6.20;;;29.60;99.90;;;;;;5071791;28;20221;-75
2023/08/24 06:28:34;;;;;;;12.98;6.72;;;28.80;99.90;;;;;;5073612;28;20239;-74
2023/08/24 06:31:00;;;;;;;9.88;6.32;;;29.20;99.90;;;;;;5075511;28;20699;-75
2023/08/24 06:33:30;;;;;;;9.77;5.22;;;29.40;99.90;;;;;;5075183;28;20172;-74
2023/08/24 06:35:59;;;;;;;10.90;5.72;;;29.60;99.00;;;;;;5075264;28;20188;-74
2023/08/24 06:38:25;;;;;;;7.90;5.25;;;30.00;99.10;;;;;;5075206;28;20362;-73
2023/08/24 06:40:51;;;;;;;9.20;5.28;;;30.40;96.80;;;;;;5075135;28;20251;-74
2023/08/24 06:43:17;;;;;;;8.25;5.22;;;30.00;97.80;;;;;;5074906;28;20674;-74
2023/08/24 06:45:44;;;;;;;9.82;5.53;;;29.60;98.90;;;;;;5074559;28;20294;-74
2023/08/24 06:48:09;;;;;;;6.47;5.25;;;29.40;99.90;;;;;;5074819;28;20571;-74
2023/08/24 06:50:36;;;;;;;8.63;5.70;;;29.60;99.70;;;;;;5074967;28;20172;-73
2023/08/24 06:53:05;;;;;;;12.13;6.25;;;30.10;98.50;;;;;;5073902;28;20219;-74
2023/08/24 06:55:31;;;;;;;6.15;5.50;;;29.80;98.50;;;;;;5074961;28;20600;-74
2023/08/24 06:57:56;;;;;;;7.57;6.18;;;30.10;98.30;;;;;;5074404;28;20172;-74
2023/08/24 07:00:22;;;;;;;9.32;6.32;;;30.10;98.20;;;;;;5074655;28;20474;-73
2023/08/24 07:02:49;;;;;;;11.23;6.40;;;29.50;98.60;;;;;;5074947;28;20238;-74
2023/08/24 07:05:18;;;;;;;17.20;6.82;;;29.70;99.30;;;;;;5074574;28;20176;-76
2023/08/24 07:07:49;;;;;;;9.63;7.55;;;30.40;98.10;;;;;;5071351;28;20219;-75
2023/08/24 07:10:15;;;;;;;8.50;6.60;;;30.90;97.10;;;;;;5081824;28;20263;-75
2023/08/24 07:12:41;;;;;;;12.63;7.28;;;31.50;95.60;;;;;;5099917;28;20635;-74
2023/08/24 07:15:08;;;;;;;7.78;6.82;;;30.80;96.40;;;;;;5084284;28;20584;-74
2023/08/24 07:17:33;;;;;;;12.93;6.53;;;30.60;97.10;;;;;;5079779;28;20379;-75
2023/08/24 07:20:00;;;;;;;8.05;6.07;;;30.40;96.80;;;;;;5093352;28;20234;-73
2023/08/24 07:22:29;;;;;;;11.95;6.57;;;30.20;98.30;;;;;;5094311;28;20208;-75
2023/08/24 07:24:54;;;;;;;12.40;6.65;;;30.30;98.00;;;;;;5078991;28;20639;-74
2023/08/24 07:27:20;;;;;;;12.88;6.82;;;30.60;97.30;;;;;;5075109;28;20218;-77
2023/08/24 07:29:46;;;;;;;12.05;6.72;;;30.30;97.60;;;;;;5074212;28;20184;-75
2023/08/24 07:32:12;;;;;;;13.38;6.63;;;29.60;98.90;;;;;;5073138;28;20176;-76
2023/08/24 07:34:37;;;;;;;14.23;7.93;;;28.90;99.90;;;;;;5075435;28;20231;-78
2023/08/24 07:37:03;;;;;;;12.70;6.82;;;28.60;99.90;;;;;;5075644;28;20199;-78
2023/08/24 07:39:29;;;;;;;20.27;8.30;;;28.40;99.90;;;;;;5072506;28;20204;-76
2023/08/24 07:41:54;;;;;;;12.45;7.43;;;28.50;99.90;;;;;;5076694;28;20552;-77
2023/08/24 07:44:21;;;;;;;15.88;7.75;;;28.40;99.90;;;;;;5077387;28;20192;-79
2023/08/24 07:46:47;;;;;;;18.95;7.32;;;27.50;99.90;;;;;;5080698;28;20260;-79
2023/08/24 07:49:13;;;;;;;11.90;7.15;;;27.30;99.90;;;;;;5073429;28;20209;-73
2023/08/24 07:51:38;;;;;;;12.52;7.80;;;27.50;99.90;;;;;;5073924;28;20183;-77
2023/08/24 07:54:06;;;;;;;14.63;7.20;;;27.20;99.90;;;;;;5079797;28;20184;-79
2023/08/24 07:56:32;;;;;;;20.15;8.38;;;26.60;99.90;;;;;;5082818;28;20168;-76
2023/08/24 07:58:58;;;;;;;14.18;7.88;;;26.70;99.90;;;;;;5078994;28;20188;-75
2023/08/24 08:01:24;;;;;;;13.65;7.93;;;26.70;99.90;;;;;;5081540;28;20273;-77
2023/08/24 08:03:49;;;;;;;12.32;7.32;;;26.50;99.90;;;;;;5072725;28;20880;-76
2023/08/24 08:06:15;;;;;;;12.70;7.72;;;26.50;99.90;;;;;;5076717;28;20168;-75
2023/08/24 08:08:40;;;;;;;14.68;7.80;;;26.00;99.90;;;;;;5092606;28;20328;-74
2023/08/24 08:11:06;;;;;;;11.82;7.93;;;26.10;99.90;;;;;;5089259;28;20164;-74
2023/08/24 08:13:32;;;;;;;11.88;7.40;;;25.90;99.90;;;;;;5080499;28;20176;-74
2023/08/24 08:16:04;;;;;;;14.15;7.95;;;25.60;99.90;;;;;;5073113;28;20524;-78
2023/08/24 08:18:30;;;;;;;14.85;7.35;;;25.70;99.90;;;;;;5076655;28;20215;-77
2023/08/24 08:20:55;;;;;;;17.70;7.80;;;25.80;99.90;;;;;;5093411;28;20178;-75
2023/08/24 08:23:21;;;;;;;15.88;10.25;;;25.70;99.90;;;;;;5085860;28;20524;-75
2023/08/24 08:25:46;;;;;;;17.35;8.82;;;25.70;99.90;;;;;;5080528;28;20179;-74
2023/08/24 08:28:12;;;;;;;15.20;8.43;;;25.80;99.90;;;;;;5080448;28;20203;-75
2023/08/24 08:30:38;;;;;;;17.55;7.82;;;25.70;99.90;;;;;;5073269;28;20631;-73
2023/08/24 08:33:04;;;;;;;20.13;7.68;;;25.40;99.90;;;;;;5083149;28;20183;-72
2023/08/24 08:35:30;;;;;;;18.38;9.55;;;25.50;99.90;;;;;;5084155;28;20242;-74
2023/08/24 08:37:55;;;;;;;10.95;7.55;;;26.00;99.90;;;;;;5080488;28;20788;-77
2023/08/24 08:40:24;;;;;;;13.73;7.80;;;26.20;99.90;;;;;;5072620;28;20179;-75
2023/08/24 08:42:50;;;;;;;10.65;7.63;;;26.10;99.90;;;;;;5079650;28;20180;-75
2023/08/24 08:45:18;;;;;;;11.73;7.28;;;26.10;99.90;;;;;;5092652;28;20566;-77
2023/08/24 08:47:44;;;;;;;15.00;7.95;;;26.10;99.90;;;;;;5091786;28;20310;-77
2023/08/24 08:50:10;;;;;;;13.98;7.97;;;26.20;99.90;;;;;;5087271;28;20605;-75
2023/08/24 08:52:36;;;;;;;10.57;7.72;;;26.30;99.90;;;;;;5074302;28;20176;-75
2023/08/24 08:55:06;;;;;;;14.35;7.63;;;26.30;99.90;;;;;;5078694;28;20600;-75
2023/08/24 08:57:32;;;;;;;14.00;7.40;;;26.70;99.90;;;;;;5071549;28;20187;-75
2023/08/24 08:59:58;;;;;;;10.45;7.97;;;27.10;99.90;;;;;;5082779;28;20172;-75
2023/08/24 09:02:24;;;;;;;12.40;7.38;;;27.20;99.90;;;;;;5084357;28;20196;-77
2023/08/24 09:04:51;;;;;;;12.85;9.15;;;27.50;99.90;;;;;;5081873;28;20199;-77
2023/08/24 09:07:17;;;;;;;14.15;7.93;;;27.60;99.90;;;;;;5072512;28;20228;-77
2023/08/24 09:09:43;;;;;;;12.15;7.75;;;27.80;99.90;;;;;;5077605;28;20716;-77
2023/08/24 09:12:09;;;;;;;13.80;8.50;;;27.90;99.90;;;;;;5080461;28;20223;-78
2023/08/24 09:14:34;;;;;;;19.40;7.70;;;28.00;99.90;;;;;;5077058;28;20267;-77
2023/08/24 09:17:00;;;;;;;14.07;7.20;;;27.60;99.90;;;;;;5075868;28;20214;-77
2023/08/24 09:19:35;;;;;;;10.65;6.60;;;27.20;99.90;;;;;;5091836;28;20228;-77
2023/08/24 09:22:01;;;;;;;16.50;7.30;;;27.30;99.90;;;;;;5080540;28;20586;-79
2023/08/24 09:24:34;;;;;;;11.73;6.88;;;27.30;99.90;;;;;;5091415;28;20485;-77
2023/08/24 09:27:13;;;;;;;14.70;7.60;;;27.40;99.90;;;;;;5087608;28;20230;-77
2023/08/24 09:29:39;;;;;;;11.43;7.40;;;27.20;99.90;;;;;;5075067;28;20203;-74
2023/08/24 09:32:08;;;;;;;27.50;12.60;;;26.80;99.90;;;;;;5081364;28;20656;-74
2023/08/24 09:34:36;;;;;;;10.80;5.40;;;26.20;99.90;;;;;;5072245;28;20184;-75
2023/08/24 09:37:04;;;;;;;11.07;6.00;;;25.80;99.90;;;;;;5075330;28;20238;-74
2023/08/24 09:39:29;;;;;;;12.20;6.40;;;25.40;99.90;;;;;;5073629;28;20168;-74
2023/08/24 09:42:03;;;;;;;8.70;5.32;;;25.20;99.90;;;;;;5071415;28;20209;-76
2023/08/24 09:44:28;;;;;;;11.27;5.65;;;24.70;99.90;;;;;;5076830;28;20192;-77
2023/08/24 09:46:54;;;;;;;10.05;5.80;;;24.10;99.90;;;;;;5070973;28;20271;-76
2023/08/24 09:49:20;;;;;;;11.93;6.25;;;23.60;99.90;;;;;;5074242;28;20204;-75
2023/08/24 09:51:46;;;;;;;8.80;6.75;;;23.20;99.90;;;;;;5091463;28;20203;-75
2023/08/24 09:54:13;;;;;;;11.98;7.10;;;22.90;99.90;;;;;;5092256;28;20172;-77
2023/08/24 09:56:43;;;;;;;9.13;6.65;;;22.50;99.90;;;;;;5085546;28;20180;-74
2023/08/24 09:59:18;;;;;;;9.43;6.35;;;22.20;99.90;;;;;;5085258;28;20199;-73
2023/08/24 10:01:47;;;;;;;9.27;7.18;;;22.00;99.90;;;;;;5075093;28;20629;-73
2023/08/24 10:04:13;;;;;;;11.45;6.70;;;22.00;99.90;;;;;;5075605;28;20168;-72
2023/08/24 10:06:40;;;;;;;14.30;8.05;;;21.60;99.90;;;;;;5075157;28;20184;-78
2023/08/24 10:09:14;;;;;;;13.50;7.75;;;21.40;99.90;;;;;;5075289;28;20204;-77
2023/08/24 10:11:47;;;;;;;10.48;8.10;;;21.30;99.90;;;;;;5079357;28;20168;-77
2023/08/24 10:14:24;;;;;;;10.50;7.95;;;21.20;99.90;;;;;;5096641;28;20180;-78
2023/08/24 10:16:52;;;;;;;9.68;7.70;;;21.10;99.90;;;;;;5073159;28;20577;-78
2023/08/24 10:19:19;;;;;;;11.65;8.05;;;20.90;99.90;;;;;;5076408;28;20263;-78
2023/08/24 10:21:46;;;;;;;9.75;7.88;;;20.80;99.90;;;;;;5074590;28;20193;-80
2023/08/24 10:24:14;;;;;;;11.73;8.07;;;20.80;99.90;;;;;;5075629;28;20168;-78
2023/08/24 10:26:40;;;;;;;11.90;8.85;;;20.80;99.90;;;;;;5074834;28;20169;-78
2023/08/24 10:29:07;;;;;;;12.57;8.50;;;20.80;99.90;;;;;;5076119;28;20242;-79
2023/08/24 10:31:34;;;;;;;10.07;7.45;;;20.80;99.90;;;;;;5075506;28;20651;-79
2023/08/24 10:34:02;;;;;;;11.43;8.30;;;20.70;99.90;;;;;;5074112;28;20638;-78
2023/08/24 10:36:28;;;;;;;10.90;8.48;;;20.70;99.90;;;;;;5078217;28;20233;-76
2023/08/24 10:38:57;;;;;;;9.98;7.95;;;20.70;99.90;;;;;;5074957;28;20192;-77
2023/08/24 10:41:27;;;;;;;9.70;7.97;;;20.70;99.90;;;;;;5090897;28;20534;-77
2023/08/24 10:44:05;;;;;;;12.23;9.65;;;20.60;99.90;;;;;;5074347;28;20203;-78
2023/08/24 10:46:34;;;;;;;10.60;9.52;;;20.70;99.90;;;;;;5074832;28;20279;-77
2023/08/24 10:49:04;;;;;;;12.32;7.97;;;20.90;99.90;;;;;;5074396;28;20234;-78
2023/08/24 10:51:31;;;;;;;9.40;8.27;;;20.90;99.90;;;;;;5075229;28;20200;-77
2023/08/24 10:53:58;;;;;;;9.23;8.18;;;21.00;99.90;;;;;;5073886;28;20207;-78
2023/08/24 10:56:38;;;;;;;10.20;8.20;;;21.10;99.90;;;;;;5092060;28;20188;-78
2023/08/24 10:59:13;;;;;;;9.95;8.10;;;21.10;99.90;;;;;;5095208;28;20198;-78
2023/08/24 11:01:52;;;;;;;8.88;7.57;;;21.20;99.90;;;;;;5085147;28;20514;-77
2023/08/24 11:04:18;;;;;;;10.18;6.90;;;21.30;99.90;;;;;;5075539;28;20192;-79
2023/08/24 11:06:53;;;;;;;8.60;6.65;;;21.50;99.90;;;;;;5074825;28;20175;-77
2023/08/24 11:09:19;;;;;;;6.28;5.68;;;21.80;99.90;;;;;;5076541;28;20238;-79
2023/08/24 11:12:01;;;;;;;8.52;5.80;;;21.90;99.90;;;;;;5076736;28;20828;-78
2023/08/24 11:14:32;;;;;;;6.75;5.85;;;22.00;99.90;;;;;;5081671;28;20187;-79
2023/08/24 11:17:02;;;;;;;7.07;5.95;;;22.10;99.90;;;;;;5088427;28;20179;-79
2023/08/24 11:19:30;;;;;;;6.60;6.00;;;22.10;99.90;;;;;;5087837;28;20216;-73
2023/08/24 11:21:55;;;;;;;6.60;5.80;;;22.10;99.90;;;;;;5084228;28;20172;-76
2023/08/24 11:24:25;;;;;;;8.75;6.18;;;22.30;99.90;;;;;;5073995;28;20161;-73
2023/08/24 11:26:52;;;;;;;7.55;5.65;;;22.50;99.90;;;;;;5074292;28;20176;-73
2023/08/24 11:29:20;;;;;;;5.85;5.22;;;22.70;99.90;;;;;;5075636;28;20258;-74
2023/08/24 11:31:47;;;;;;;5.85;5.25;;;22.80;99.90;;;;;;5080895;28;20250;-76
2023/08/24 11:34:15;;;;;;;8.73;5.93;;;22.80;99.90;;;;;;5085047;28;20207;-73
2023/08/24 11:36:46;;;;;;;9.27;5.90;;;23.00;99.90;;;;;;5072061;28;20176;-74
2023/08/24 11:39:20;;;;;;;7.72;5.85;;;23.10;99.90;;;;;;5077680;28;20181;-74
2023/08/24 11:42:09;;;;;;;9.35;5.45;;;23.10;99.90;;;;;;5072415;28;20286;-76
2023/08/24 11:44:47;;;;;;;7.28;5.30;;;23.30;99.90;;;;;;5079274;28;20256;-76
2023/08/24 11:47:14;;;;;;;9.57;6.75;;;23.30;99.90;;;;;;5081049;28;20188;-75
2023/08/24 11:49:40;;;;;;;14.85;6.47;;;23.20;99.90;;;;;;5072005;28;20173;-77
2023/08/24 11:52:06;;;;;;;8.65;5.40;;;23.20;99.90;;;;;;5084940;28;20180;-74
2023/08/24 11:54:38;;;;;;;9.88;6.50;;;23.30;99.90;;;;;;5073860;28;20225;-75
2023/08/24 11:57:06;;;;;;;9.43;5.97;;;23.30;99.90;;;;;;5072745;28;20176;-74
2023/08/24 11:59:32;;;;;;;8.73;6.30;;;23.30;99.90;;;;;;5074346;28;20172;-75
2023/08/24 12:01:58;;;;;;;7.50;5.95;;;23.30;99.90;;;;;;5072864;28;20206;-74
2023/08/24 12:04:24;;;;;;;10.75;6.00;;;23.20;99.90;;;;;;5079048;28;20180;-73
2023/08/24 12:06:50;;;;;;;8.40;5.50;;;23.10;99.90;;;;;;5076953;28;20670;-74
2023/08/24 12:09:16;;;;;;;9.90;6.00;;;23.10;99.90;;;;;;5090655;28;20218;-76
2023/08/24 12:11:41;;;;;;;8.25;5.55;;;23.20;99.90;;;;;;5086075;28;20574;-75
2023/08/24 12:14:16;;;;;;;8.45;5.85;;;23.10;99.90;;;;;;5072925;28;20184;-78
2023/08/24 12:16:42;;;;;;;6.10;5.50;;;22.90;99.90;;;;;;5070175;28;20172;-77
2023/08/24 12:19:08;;;;;;;7.22;6.00;;;22.60;99.90;;;;;;5072345;28;20611;-77
2023/08/24 12:21:33;;;;;;;6.47;5.40;;;22.40;99.90;;;;;;5072973;28;20184;-74
2023/08/24 12:24:00;;;;;;;8.48;5.50;;;22.20;99.90;;;;;;5087016;28;20680;-72
2023/08/24 12:26:27;;;;;;;7.40;5.22;;;22.10;99.90;;;;;;5085508;28;20214;-73
2023/08/24 12:28:55;;;;;;;5.80;4.95;;;21.90;99.90;;;;;;5091894;28;20210;-74
2023/08/24 12:31:25;;;;;;;5.68;4.93;;;21.80;99.90;;;;;;5085306;28;20185;-75
2023/08/24 12:34:06;;;;;;;8.48;5.57;;;21.80;99.90;;;;;;5072563;28;20675;-72
2023/08/24 12:36:33;;;;;;;6.95;6.18;;;21.70;99.90;;;;;;5072524;28;20168;-71
2023/08/24 12:38:59;;;;;;;8.00;6.30;;;21.60;99.90;;;;;;5076094;28;20176;-71